Time;durP1;ratioP1;P1;durP2;ratioP2;P2;SDS_P1;SDS_P2;PMS_P1;PMS_P2;Temp;Humidity;BMP_temperature;BMP_pressure;BME280_temperature;BME280_humidity;BME280_pressure;Samples;Min_cycle;Max_cycle;Signal;HPM_P1;HPM_P2
2021/12/21 00:01:23;;;;;;;23.70;7.07;;;-0.70;99.90;;;;;;5051277;27;20973;-39
2021/12/21 00:03:50;;;;;;;62.43;8.17;;;-0.80;99.90;;;;;;5084074;28;20211;-38
2021/12/21 00:06:17;;;;;;;16.40;7.40;;;-0.80;99.90;;;;;;5063196;28;20749;-39
2021/12/21 00:08:44;;;;;;;24.07;6.93;;;-0.70;99.90;;;;;;5080083;28;21203;-38
2021/12/21 00:11:12;;;;;;;14.33;7.17;;;-0.70;99.90;;;;;;5066436;28;20673;-38
2021/12/21 00:19:25;;;;;;;28.77;6.60;;;-0.70;99.90;;;;;;5075502;27;20208;-40
2021/12/21 00:21:57;;;;;;;10.57;6.60;;;-0.70;99.90;;;;;;5072620;28;20693;-41
2021/12/21 00:24:31;;;;;;;15.20;7.00;;;-0.60;99.90;;;;;;5065989;27;20229;-40
2021/12/21 00:27:00;;;;;;;14.23;5.93;;;-0.60;99.90;;;;;;5083588;28;20214;-40
2021/12/21 00:29:27;;;;;;;73.00;7.73;;;-0.60;99.90;;;;;;5044097;28;20425;-40
2021/12/21 00:31:55;;;;;;;36.67;7.57;;;-0.60;99.90;;;;;;5079393;28;20725;-40
2021/12/21 00:34:22;;;;;;;31.17;7.17;;;-0.70;99.90;;;;;;5076959;28;20226;-41
2021/12/21 00:36:49;;;;;;;25.57;7.33;;;-0.80;99.90;;;;;;5072981;28;20226;-40
2021/12/21 00:39:16;;;;;;;12.43;5.33;;;-0.80;99.90;;;;;;5065865;28;20214;-40
2021/12/21 00:41:43;;;;;;;41.17;6.77;;;-0.80;99.90;;;;;;5069185;28;20245;-40
2021/12/21 00:44:10;;;;;;;22.77;6.63;;;-1.00;99.90;;;;;;5066532;28;20229;-39
2021/12/21 00:46:38;;;;;;;43.07;6.50;;;-1.10;99.90;;;;;;5062221;28;20882;-39
2021/12/21 00:49:14;;;;;;;17.37;7.07;;;-1.30;99.90;;;;;;5075411;28;20203;-39
2021/12/21 00:51:43;;;;;;;9.80;5.70;;;-1.40;99.90;;;;;;5080196;28;20204;-39
2021/12/21 00:54:10;;;;;;;20.93;6.07;;;-1.30;99.90;;;;;;5064541;28;20220;-39
2021/12/21 00:56:37;;;;;;;14.87;5.70;;;-1.20;99.90;;;;;;5066492;28;20217;-39
2021/12/21 00:59:04;;;;;;;9.40;5.40;;;-1.20;99.90;;;;;;5066930;28;20223;-39
2021/12/21 01:01:34;;;;;;;7.87;4.97;;;-1.20;99.90;;;;;;5044224;28;20225;-39
2021/12/21 01:04:03;;;;;;;7.90;4.83;;;-1.20;99.90;;;;;;5085955;28;20226;-39
2021/12/21 01:06:41;;;;;;;18.13;4.90;;;-1.20;99.90;;;;;;5077106;28;20284;-39
2021/12/21 01:09:14;;;;;;;23.37;6.37;;;-1.10;99.90;;;;;;5068345;28;20208;-39
2021/12/21 01:11:45;;;;;;;79.20;7.63;;;-1.10;99.90;;;;;;5074860;28;20209;-39
2021/12/21 01:14:42;;;;;;;91.73;8.60;;;-1.00;99.90;;;;;;5068644;28;20296;-39
2021/12/21 01:17:13;;;;;;;117.27;9.30;;;-1.20;99.90;;;;;;5072923;28;20235;-39
2021/12/21 01:19:44;;;;;;;101.80;7.47;;;-1.20;99.90;;;;;;5049757;28;20208;-39
2021/12/21 01:22:18;;;;;;;37.43;5.43;;;-1.20;99.90;;;;;;5084556;28;20318;-39
2021/12/21 01:25:14;;;;;;;25.87;5.73;;;-1.20;99.90;;;;;;5070017;28;20244;-39
2021/12/21 01:27:54;;;;;;;30.37;5.60;;;-1.20;99.90;;;;;;5077989;28;20972;-39
2021/12/21 01:30:33;;;;;;;21.67;5.17;;;-1.20;99.90;;;;;;5063819;28;21003;-39
2021/12/21 01:33:11;;;;;;;15.77;4.90;;;-1.30;99.90;;;;;;5063123;28;20211;-39
2021/12/21 01:35:42;;;;;;;13.20;4.50;;;-1.30;99.90;;;;;;5055125;28;20309;-39
2021/12/21 01:38:22;;;;;;;19.63;4.87;;;-1.40;99.90;;;;;;5079525;28;20230;-39
2021/12/21 01:40:55;;;;;;;36.90;5.37;;;-1.30;99.90;;;;;;5071996;28;20219;-39
2021/12/21 01:43:29;;;;;;;88.67;6.30;;;-1.40;99.90;;;;;;5069191;28;20208;-39
2021/12/21 01:51:25;;;;;;;83.63;8.03;;;-1.40;99.90;;;;;;5055063;28;20934;-39
2021/12/21 01:53:53;;;;;;;44.67;5.90;;;-1.40;99.90;;;;;;5083460;28;20349;-39
2021/12/21 01:56:22;;;;;;;61.83;6.87;;;-1.40;99.90;;;;;;5064180;28;20220;-39
2021/12/21 01:58:50;;;;;;;37.00;5.43;;;-1.50;99.90;;;;;;5075592;28;20218;-39
2021/12/21 02:01:21;;;;;;;47.43;6.00;;;-1.60;99.90;;;;;;5061977;28;20206;-39
2021/12/21 02:03:48;;;;;;;49.67;5.73;;;-1.70;99.90;;;;;;5058513;28;20215;-39
2021/12/21 02:06:16;;;;;;;53.27;5.73;;;-1.60;99.90;;;;;;5075850;28;20195;-39
2021/12/21 02:08:44;;;;;;;83.20;7.00;;;-1.50;99.90;;;;;;5077715;28;20728;-39
2021/12/21 02:11:12;;;;;;;37.87;5.43;;;-1.70;99.90;;;;;;5069623;28;20222;-39
2021/12/21 02:13:44;;;;;;;42.10;5.70;;;-1.70;99.90;;;;;;5071195;28;20301;-39
2021/12/21 02:16:11;;;;;;;41.53;5.57;;;-1.60;99.90;;;;;;5060771;28;20231;-39
2021/12/21 02:18:48;;;;;;;18.50;4.70;;;-1.60;99.90;;;;;;5083145;28;20290;-39
2021/12/21 02:21:24;;;;;;;4.50;4.03;;;-1.50;99.90;;;;;;5065455;28;20219;-41
2021/12/21 02:23:54;;;;;;;7.40;4.30;;;-1.50;99.90;;;;;;5079119;28;20204;-39
2021/12/21 02:26:39;;;;;;;5.73;4.17;;;-1.50;99.90;;;;;;5069783;28;20953;-39
2021/12/21 02:29:18;;;;;;;10.33;4.60;;;-1.50;99.90;;;;;;5046102;28;20208;-39
2021/12/21 02:31:49;;;;;;;27.87;4.93;;;-1.50;99.90;;;;;;5074846;28;20207;-39
2021/12/21 02:34:17;;;;;;;4.57;3.93;;;-1.50;99.90;;;;;;5076951;28;20222;-39
2021/12/21 02:36:48;;;;;;;6.00;3.43;;;-1.60;99.90;;;;;;5056503;28;20235;-39
2021/12/21 02:39:16;;;;;;;5.30;4.10;;;-1.60;99.90;;;;;;5077156;28;20204;-39
2021/12/21 02:41:44;;;;;;;9.47;3.80;;;-1.70;99.90;;;;;;5050553;28;22817;-39
2021/12/21 02:44:12;;;;;;;14.47;3.83;;;-1.80;99.90;;;;;;5067780;28;20231;-39
2021/12/21 02:46:39;;;;;;;5.03;3.90;;;-1.70;99.90;;;;;;5076782;28;20214;-39
2021/12/21 02:49:07;;;;;;;4.83;4.03;;;-1.60;99.90;;;;;;5060966;28;20278;-39
2021/12/21 02:51:34;;;;;;;4.53;3.87;;;-1.70;99.90;;;;;;5057791;28;20216;-39
2021/12/21 02:54:02;;;;;;;10.33;4.07;;;-1.70;99.90;;;;;;5080538;28;20311;-40
2021/12/21 02:56:29;;;;;;;12.87;4.17;;;-1.70;99.90;;;;;;5060862;28;20361;-40
2021/12/21 02:58:56;;;;;;;17.03;3.80;;;-1.80;99.90;;;;;;5056895;28;20206;-40
2021/12/21 03:01:23;;;;;;;9.33;3.73;;;-1.80;99.90;;;;;;5045752;28;20215;-41
2021/12/21 03:03:52;;;;;;;5.60;4.13;;;-1.80;99.90;;;;;;5084520;28;20632;-41
2021/12/21 03:06:48;;;;;;;5.40;4.37;;;-1.70;99.90;;;;;;5052842;28;20219;-41
2021/12/21 03:09:34;;;;;;;8.60;4.30;;;-1.70;99.90;;;;;;5077747;28;20247;-41
2021/12/21 03:12:11;;;;;;;5.03;4.10;;;-1.80;99.90;;;;;;5063153;28;20212;-41
2021/12/21 03:14:38;;;;;;;5.57;4.20;;;-1.80;99.90;;;;;;5068744;28;20305;-41
2021/12/21 03:17:06;;;;;;;5.20;4.30;;;-1.80;99.90;;;;;;5059693;28;20212;-41
2021/12/21 03:19:33;;;;;;;4.93;4.03;;;-1.80;99.90;;;;;;5057699;28;20634;-41
2021/12/21 03:22:02;;;;;;;6.17;4.23;;;-1.70;99.90;;;;;;5057329;28;20212;-41
2021/12/21 03:24:30;;;;;;;4.57;3.73;;;-1.80;99.90;;;;;;5078091;28;20233;-42
2021/12/21 03:26:57;;;;;;;5.03;4.27;;;-1.70;99.90;;;;;;5075116;28;20203;-41
2021/12/21 03:29:25;;;;;;;4.13;3.73;;;-1.80;99.90;;;;;;5066441;28;20213;-41
2021/12/21 03:31:52;;;;;;;4.40;4.00;;;-1.80;99.90;;;;;;5037554;28;20347;-41
2021/12/21 03:34:19;;;;;;;3.97;3.50;;;-1.70;99.90;;;;;;5080408;28;20223;-41
2021/12/21 03:37:04;;;;;;;3.97;3.43;;;-1.70;99.90;;;;;;5050014;28;20858;-41
2021/12/21 03:39:32;;;;;;;4.10;3.70;;;-1.70;99.90;;;;;;5065198;28;20293;-41
2021/12/21 03:42:00;;;;;;;4.10;3.70;;;-1.80;99.90;;;;;;5078297;28;20211;-41
2021/12/21 03:44:28;;;;;;;4.27;3.60;;;-1.70;99.90;;;;;;5076008;28;20303;-41
2021/12/21 03:46:56;;;;;;;4.07;3.67;;;-1.70;99.90;;;;;;5064343;28;20205;-41
2021/12/21 03:52:10;;;;;;;6.13;4.60;;;-1.70;99.90;;;;;;5066094;28;20208;-41
2021/12/21 03:54:40;;;;;;;5.40;4.20;;;-1.80;99.90;;;;;;5073312;28;20216;-41
2021/12/21 03:57:07;;;;;;;10.07;4.97;;;-1.90;99.90;;;;;;5076129;28;20219;-41
2021/12/21 03:59:35;;;;;;;7.27;4.43;;;-1.90;99.90;;;;;;5060878;28;20896;-41
2021/12/21 04:02:02;;;;;;;8.27;5.10;;;-1.90;99.90;;;;;;5059964;28;20273;-41
2021/12/21 04:04:30;;;;;;;7.93;4.93;;;-1.80;99.90;;;;;;5051085;28;20334;-41
2021/12/21 04:06:57;;;;;;;7.13;4.87;;;-1.90;99.90;;;;;;5080031;28;20212;-41
2021/12/21 04:09:24;;;;;;;4.43;3.90;;;-1.90;99.90;;;;;;5052940;28;20578;-41
2021/12/21 04:11:53;;;;;;;7.43;4.30;;;-1.80;99.90;;;;;;5065114;28;20229;-41
2021/12/21 04:14:20;;;;;;;5.20;4.30;;;-1.80;99.90;;;;;;5065871;28;20709;-41
2021/12/21 04:16:48;;;;;;;4.80;4.30;;;-1.80;99.90;;;;;;5073058;28;20766;-44
2021/12/21 04:19:17;;;;;;;4.23;3.60;;;-1.80;99.90;;;;;;5068053;28;20264;-44
2021/12/21 04:21:44;;;;;;;5.03;4.07;;;-1.80;99.90;;;;;;5067661;28;20208;-44
2021/12/21 04:24:11;;;;;;;4.37;3.83;;;-1.80;99.90;;;;;;5056473;28;20223;-44
2021/12/21 04:26:38;;;;;;;5.03;3.50;;;-1.70;99.90;;;;;;5079605;28;20204;-44
2021/12/21 04:29:07;;;;;;;7.17;4.50;;;-1.80;99.90;;;;;;5061769;28;20674;-44
2021/12/21 04:31:34;;;;;;;6.73;5.13;;;-1.80;99.90;;;;;;5049801;28;20192;-44
2021/12/21 04:34:02;;;;;;;19.03;4.93;;;-1.80;99.90;;;;;;5074396;28;20841;-44
2021/12/21 04:36:30;;;;;;;29.07;5.03;;;-1.80;99.90;;;;;;5072681;28;20216;-44
2021/12/21 04:38:59;;;;;;;28.60;5.90;;;-1.80;99.90;;;;;;5062007;28;20239;-44
2021/12/21 04:41:28;;;;;;;46.80;5.70;;;-1.90;99.90;;;;;;5060764;28;20693;-44
2021/12/21 04:43:57;;;;;;;14.57;4.83;;;-1.80;99.90;;;;;;5062977;27;20208;-44
2021/12/21 04:46:26;;;;;;;17.67;5.23;;;-1.80;99.90;;;;;;5063858;28;20196;-44
2021/12/21 04:48:54;;;;;;;27.97;5.27;;;-1.80;99.90;;;;;;5057882;28;20226;-44
2021/12/21 04:51:22;;;;;;;21.17;4.47;;;-1.90;99.90;;;;;;5049233;28;20298;-45
2021/12/21 04:53:49;;;;;;;6.30;4.60;;;-1.80;99.90;;;;;;5076045;28;20211;-44
2021/12/21 04:56:16;;;;;;;22.63;5.43;;;-1.90;99.90;;;;;;5046907;27;20215;-44
2021/12/21 04:58:43;;;;;;;30.43;5.93;;;-1.90;99.90;;;;;;5045574;28;20208;-44
2021/12/21 05:01:11;;;;;;;16.70;4.83;;;-1.90;99.90;;;;;;5054107;28;20487;-44
2021/12/21 05:03:40;;;;;;;10.07;4.07;;;-1.90;99.90;;;;;;5069401;27;20214;-45
2021/12/21 05:06:07;;;;;;;7.00;4.10;;;-1.90;99.90;;;;;;5055633;28;22582;-44
2021/12/21 05:08:37;;;;;;;11.63;4.13;;;-1.90;99.90;;;;;;5063971;28;20564;-44
2021/12/21 05:11:06;;;;;;;6.90;3.93;;;-2.00;99.90;;;;;;5059038;28;26150;-44
2021/12/21 05:13:38;;;;;;;9.17;3.93;;;-2.00;99.90;;;;;;5070818;28;20252;-44
2021/12/21 05:16:06;;;;;;;8.90;3.93;;;-2.00;99.90;;;;;;5059343;27;20211;-38
2021/12/21 05:18:34;;;;;;;4.67;4.17;;;-1.90;99.90;;;;;;5065236;28;20431;-38
2021/12/21 05:21:03;;;;;;;4.93;4.13;;;-2.00;99.90;;;;;;5065970;28;20277;-38
2021/12/21 05:23:30;;;;;;;4.57;4.03;;;-2.10;99.90;;;;;;5071764;28;21276;-37
2021/12/21 05:25:57;;;;;;;5.60;4.00;;;-2.10;99.90;;;;;;5074489;28;20226;-38
2021/12/21 05:28:25;;;;;;;4.73;3.70;;;-2.10;99.90;;;;;;5055624;27;20210;-38
2021/12/21 05:30:52;;;;;;;8.87;4.90;;;-2.10;99.90;;;;;;5044494;28;20209;-40
2021/12/21 05:33:19;;;;;;;6.63;4.60;;;-2.10;99.90;;;;;;5058827;28;20211;-39
2021/12/21 05:35:48;;;;;;;6.23;4.80;;;-2.00;99.90;;;;;;5044777;28;21810;-40
2021/12/21 05:38:23;;;;;;;4.83;4.30;;;-2.00;99.90;;;;;;5056536;28;20786;-39
2021/12/21 05:40:51;;;;;;;7.20;4.87;;;-2.00;99.90;;;;;;5066551;28;20693;-39
2021/12/21 05:43:18;;;;;;;14.77;5.10;;;-2.10;99.90;;;;;;5045373;28;20816;-37
2021/12/21 05:45:45;;;;;;;28.70;5.20;;;-2.10;99.90;;;;;;5063948;28;20227;-43
2021/12/21 05:48:13;;;;;;;34.53;5.47;;;-2.10;99.90;;;;;;5054385;28;20767;-37
2021/12/21 05:50:40;;;;;;;11.30;5.17;;;-2.10;99.90;;;;;;5055431;28;22002;-37
2021/12/21 05:53:07;;;;;;;39.37;5.47;;;-2.20;99.90;;;;;;5052533;28;20539;-38
2021/12/21 05:55:36;;;;;;;35.33;5.70;;;-2.20;99.90;;;;;;5080731;28;20736;-37
2021/12/21 05:58:03;;;;;;;32.47;6.00;;;-2.20;99.90;;;;;;5048835;28;20562;-38
2021/12/21 06:00:33;;;;;;;18.40;4.50;;;-2.20;99.90;;;;;;5076182;28;20203;-38
2021/12/21 06:03:01;;;;;;;16.83;4.60;;;-2.30;99.90;;;;;;5052414;28;20416;-37
2021/12/21 06:05:28;;;;;;;8.33;4.97;;;-2.30;99.90;;;;;;5053558;28;20315;-37
2021/12/21 06:07:56;;;;;;;5.57;4.43;;;-2.30;99.90;;;;;;5049070;28;20213;-37
2021/12/21 06:10:28;;;;;;;21.07;5.57;;;-2.30;99.90;;;;;;5052714;28;20305;-37
2021/12/21 06:15:54;;;;;;;49.17;6.73;;;-2.30;99.90;;;;;;5070304;28;21469;-38
2021/12/21 06:26:57;;;;;;;75.87;8.30;;;-2.50;99.90;;;;;;5071186;28;20202;-36
2021/12/21 06:29:27;;;;;;;111.97;8.10;;;-2.70;99.90;;;;;;5056398;28;20204;-37
2021/12/21 06:31:55;;;;;;;99.33;7.83;;;-2.70;99.90;;;;;;5067424;28;20212;-37
2021/12/21 06:34:22;;;;;;;32.60;6.43;;;-2.60;99.90;;;;;;5067961;28;20235;-37
2021/12/21 06:36:49;;;;;;;85.77;8.30;;;-2.60;99.90;;;;;;5059539;28;20308;-37
2021/12/21 06:39:17;;;;;;;50.53;7.33;;;-2.50;99.90;;;;;;5060077;28;22018;-37
2021/12/21 06:41:44;;;;;;;26.60;6.53;;;-2.50;99.90;;;;;;5080419;28;20202;-37
2021/12/21 06:44:14;;;;;;;15.77;6.03;;;-2.50;99.90;;;;;;5060611;28;20411;-37
2021/12/21 06:47:03;;;;;;;29.10;5.83;;;-2.40;99.90;;;;;;5077477;28;20199;-36
2021/12/21 06:52:16;;;;;;;26.93;6.83;;;-2.50;99.90;;;;;;5058694;28;20649;-36
2021/12/21 06:54:42;;;;;;;47.13;7.00;;;-2.50;99.90;;;;;;5056838;28;20228;-37
2021/12/21 06:57:09;;;;;;;33.63;6.07;;;-2.60;99.90;;;;;;5071060;28;20212;-36
2021/12/21 06:59:37;;;;;;;55.93;7.37;;;-2.50;99.90;;;;;;5058178;28;20215;-37
2021/12/21 07:02:07;;;;;;;38.70;6.13;;;-2.50;99.90;;;;;;5077322;28;20203;-36
2021/12/21 07:04:35;;;;;;;43.37;6.70;;;-2.60;99.90;;;;;;5066889;28;20234;-37
2021/12/21 07:07:02;;;;;;;50.53;7.80;;;-2.50;99.90;;;;;;5072514;28;20215;-37
2021/12/21 07:09:35;;;;;;;69.60;8.30;;;-2.50;99.90;;;;;;5055218;28;20685;-36
2021/12/21 07:12:22;;;;;;;95.23;8.97;;;-2.60;99.90;;;;;;5081674;28;20781;-37
2021/12/21 07:20:29;;;;;;;67.20;7.60;;;-2.70;99.90;;;;;;5028883;28;20669;-36
2021/12/21 07:22:57;;;;;;;53.37;8.37;;;-2.70;99.90;;;;;;5077851;28;20208;-36
2021/12/21 07:25:27;;;;;;;21.13;7.10;;;-2.70;99.90;;;;;;5048364;28;20727;-37
2021/12/21 07:27:55;;;;;;;23.93;7.17;;;-2.70;99.90;;;;;;5079603;28;20696;-37
2021/12/21 07:30:23;;;;;;;16.00;7.13;;;-2.70;99.90;;;;;;5053112;28;20238;-37
2021/12/21 07:32:51;;;;;;;14.50;6.10;;;-2.70;99.90;;;;;;5071954;28;20359;-37
2021/12/21 07:35:19;;;;;;;8.57;6.43;;;-2.70;99.90;;;;;;5054935;28;20318;-37
2021/12/21 07:37:47;;;;;;;12.33;6.80;;;-2.80;99.90;;;;;;5066819;28;20518;-37
2021/12/21 07:40:15;;;;;;;8.83;6.37;;;-2.70;99.90;;;;;;5047513;28;20392;-37
2021/12/21 07:42:42;;;;;;;12.47;5.90;;;-2.70;99.90;;;;;;5064980;28;20291;-37
2021/12/21 07:45:10;;;;;;;8.57;6.23;;;-2.70;99.90;;;;;;5078802;28;20655;-37
2021/12/21 07:47:38;;;;;;;22.77;7.30;;;-2.70;99.90;;;;;;5050430;28;20295;-36
2021/12/21 07:50:09;;;;;;;13.30;6.87;;;-2.70;99.90;;;;;;5077851;28;20204;-36
2021/12/21 07:52:37;;;;;;;17.97;6.80;;;-2.70;99.90;;;;;;5069013;28;20218;-36
2021/12/21 07:55:05;;;;;;;8.63;6.13;;;-2.80;99.90;;;;;;5069480;28;20232;-36
2021/12/21 07:57:32;;;;;;;8.80;6.13;;;-2.70;99.90;;;;;;5052477;28;20654;-36
2021/12/21 08:00:02;;;;;;;8.67;5.33;;;-2.70;99.90;;;;;;5077764;27;20211;-36
2021/12/21 08:02:29;;;;;;;8.50;6.37;;;-2.70;99.90;;;;;;5062889;28;20222;-36
2021/12/21 08:04:58;;;;;;;9.07;5.47;;;-2.70;99.90;;;;;;5069492;27;20807;-38
2021/12/21 08:07:33;;;;;;;6.67;5.03;;;-2.70;99.90;;;;;;5077289;28;20608;-38
2021/12/21 08:10:17;;;;;;;9.13;6.23;;;-2.60;99.90;;;;;;5077021;28;20214;-38
2021/12/21 08:12:45;;;;;;;7.40;5.67;;;-2.60;99.90;;;;;;5055250;28;20768;-38
2021/12/21 08:15:13;;;;;;;6.23;4.80;;;-2.50;99.90;;;;;;5087713;28;20305;-38
2021/12/21 08:17:41;;;;;;;8.30;5.57;;;-2.50;99.90;;;;;;5061054;28;20328;-38
2021/12/21 08:20:09;;;;;;;7.10;5.03;;;-2.50;99.90;;;;;;5079849;27;20287;-38
2021/12/21 08:22:37;;;;;;;8.30;5.70;;;-2.50;99.90;;;;;;5060562;27;20303;-39
2021/12/21 08:25:06;;;;;;;11.03;5.90;;;-2.50;99.90;;;;;;5065132;28;20853;-39
2021/12/21 08:27:34;;;;;;;8.17;5.80;;;-2.40;99.90;;;;;;5059546;28;20214;-39
2021/12/21 08:30:01;;;;;;;8.27;6.10;;;-2.40;99.90;;;;;;5081638;28;20210;-39
2021/12/21 08:32:28;;;;;;;8.27;5.70;;;-2.40;99.90;;;;;;5060954;28;20207;-39
2021/12/21 08:34:55;;;;;;;10.83;5.80;;;-2.50;99.90;;;;;;5085665;28;20231;-39
2021/12/21 08:37:22;;;;;;;9.30;6.80;;;-2.50;99.90;;;;;;5060603;28;20285;-41
2021/12/21 08:39:51;;;;;;;8.40;5.73;;;-2.50;99.90;;;;;;5048749;27;20207;-39
2021/12/21 08:42:18;;;;;;;7.77;5.63;;;-2.40;99.90;;;;;;5069841;27;20196;-42
2021/12/21 08:44:48;;;;;;;9.60;5.70;;;-2.40;99.90;;;;;;5063465;28;20314;-39
2021/12/21 08:47:16;;;;;;;7.17;6.07;;;-2.40;99.90;;;;;;5050579;28;21286;-39
2021/12/21 08:49:43;;;;;;;8.23;5.43;;;-2.40;99.90;;;;;;5076070;28;20208;-39
2021/12/21 08:52:10;;;;;;;7.57;5.23;;;-2.40;99.90;;;;;;5071085;28;20905;-39
2021/12/21 08:54:38;;;;;;;8.27;5.60;;;-2.40;99.90;;;;;;5052968;27;20232;-39
2021/12/21 08:57:08;;;;;;;7.97;5.67;;;-2.30;99.90;;;;;;5074969;27;20223;-39
2021/12/21 08:59:35;;;;;;;9.47;6.50;;;-2.30;99.90;;;;;;5056328;27;20237;-39
2021/12/21 09:02:03;;;;;;;9.20;6.07;;;-2.30;99.90;;;;;;5073385;28;20207;-39
2021/12/21 09:04:31;;;;;;;11.00;6.87;;;-2.20;99.90;;;;;;5052613;28;20227;-39
2021/12/21 09:06:58;;;;;;;18.40;6.97;;;-2.20;99.90;;;;;;5060650;28;20211;-36
2021/12/21 09:09:26;;;;;;;9.13;6.30;;;-2.10;99.90;;;;;;5069903;28;20905;-37
2021/12/21 09:11:53;;;;;;;11.33;6.53;;;-2.20;99.90;;;;;;5075169;28;20239;-37
2021/12/21 09:14:22;;;;;;;9.73;6.00;;;-2.30;99.90;;;;;;5053241;28;20361;-37
2021/12/21 09:16:50;;;;;;;7.93;5.97;;;-2.20;99.90;;;;;;5064863;28;20753;-37
2021/12/21 09:19:17;;;;;;;9.83;6.53;;;-2.20;99.90;;;;;;5052687;28;20223;-37
2021/12/21 09:21:45;;;;;;;11.03;6.20;;;-2.20;99.90;;;;;;5070357;28;20207;-37
2021/12/21 09:24:13;;;;;;;9.43;6.77;;;-2.10;99.90;;;;;;5071274;28;20228;-36
2021/12/21 09:26:40;;;;;;;15.60;6.03;;;-2.20;99.90;;;;;;5061547;28;20221;-36
2021/12/21 09:29:07;;;;;;;10.63;6.43;;;-2.20;99.90;;;;;;5065578;28;20282;-37
2021/12/21 09:31:36;;;;;;;13.57;6.27;;;-2.30;99.90;;;;;;5064046;28;20203;-37
2021/12/21 09:34:04;;;;;;;15.17;7.03;;;-2.20;99.90;;;;;;5065523;28;20224;-37
2021/12/21 09:36:34;;;;;;;10.30;6.67;;;-2.30;99.90;;;;;;5040511;28;20338;-37
2021/12/21 09:39:01;;;;;;;15.40;6.50;;;-2.30;99.90;;;;;;5069244;28;20219;-36
2021/12/21 09:41:28;;;;;;;23.67;6.40;;;-2.30;99.90;;;;;;5060099;28;20208;-37
2021/12/21 09:43:56;;;;;;;9.77;6.10;;;-2.20;99.90;;;;;;5070229;28;20219;-36
2021/12/21 09:46:23;;;;;;;10.57;6.23;;;-2.20;99.90;;;;;;5058895;28;20204;-37
2021/12/21 09:48:52;;;;;;;16.07;6.43;;;-2.10;99.90;;;;;;5059718;28;20204;-40
2021/12/21 09:51:19;;;;;;;10.57;5.97;;;-2.10;99.90;;;;;;5058245;27;20227;-36
2021/12/21 09:53:50;;;;;;;7.23;5.50;;;-2.00;99.90;;;;;;5077181;27;20196;-37
2021/12/21 09:56:19;;;;;;;7.40;5.53;;;-1.90;99.90;;;;;;5061025;28;20214;-37
2021/12/21 09:58:46;;;;;;;10.53;5.23;;;-1.80;99.90;;;;;;5066008;28;20228;-37
2021/12/21 10:01:15;;;;;;;13.57;5.47;;;-1.80;99.90;;;;;;5056123;28;20265;-36
2021/12/21 10:03:42;;;;;;;15.13;5.30;;;-1.80;99.90;;;;;;5057201;28;20209;-37
2021/12/21 10:06:12;;;;;;;8.47;4.67;;;-1.80;99.90;;;;;;5051954;28;20204;-37
2021/12/21 10:08:41;;;;;;;9.60;5.00;;;-1.90;99.90;;;;;;5073251;28;20196;-36
2021/12/21 10:11:17;;;;;;;16.57;5.83;;;-1.80;99.90;;;;;;5072641;28;20333;-36
2021/12/21 10:13:45;;;;;;;12.80;5.00;;;-1.90;99.90;;;;;;5051526;28;20199;-36
2021/12/21 10:16:12;;;;;;;13.07;4.63;;;-1.80;99.90;;;;;;5060970;28;20239;-37
2021/12/21 10:18:42;;;;;;;12.03;5.30;;;-1.70;99.90;;;;;;5047635;28;20275;-37
2021/12/21 10:21:15;;;;;;;8.93;6.20;;;-1.80;99.90;;;;;;5071935;28;20215;-37
2021/12/21 10:23:45;;;;;;;8.20;5.73;;;-1.70;99.90;;;;;;5043548;28;20222;-36
2021/12/21 10:26:19;;;;;;;9.00;6.27;;;-1.60;99.90;;;;;;5069836;28;20213;-37
2021/12/21 10:28:48;;;;;;;6.93;5.23;;;-1.60;99.90;;;;;;5064731;28;20198;-37
2021/12/21 10:31:23;;;;;;;7.83;5.77;;;-1.50;99.90;;;;;;5071393;28;20924;-37
2021/12/21 10:33:51;;;;;;;10.47;6.23;;;-1.40;99.90;;;;;;5066481;28;20294;-37
2021/12/21 10:36:20;;;;;;;10.27;6.00;;;-1.30;99.90;;;;;;5062742;28;20211;-37
2021/12/21 10:38:51;;;;;;;12.03;7.30;;;-1.20;99.90;;;;;;5058360;28;20279;-37
2021/12/21 10:41:20;;;;;;;8.97;6.03;;;-1.10;99.90;;;;;;5070109;27;20701;-37
2021/12/21 10:44:00;;;;;;;9.60;6.97;;;-1.10;99.90;;;;;;5070865;28;20199;-37
2021/12/21 10:46:29;;;;;;;10.63;6.97;;;-1.10;99.90;;;;;;5052868;28;20201;-37
2021/12/21 10:49:06;;;;;;;11.23;7.40;;;-1.00;99.90;;;;;;5058317;28;20255;-37
2021/12/21 10:51:35;;;;;;;10.17;6.53;;;-1.10;99.90;;;;;;5052798;28;23270;-37
2021/12/21 10:54:04;;;;;;;10.70;7.70;;;-1.10;99.90;;;;;;5064847;28;20215;-37
2021/12/21 10:56:31;;;;;;;10.40;7.23;;;-1.10;99.90;;;;;;5074626;28;20227;-37
2021/12/21 10:58:58;;;;;;;10.30;7.23;;;-1.10;99.90;;;;;;5077225;28;20237;-37
2021/12/21 11:01:27;;;;;;;12.70;7.43;;;-1.00;99.90;;;;;;5056172;28;20212;-37
2021/12/21 11:03:57;;;;;;;10.17;7.10;;;-1.00;99.90;;;;;;5063078;27;20341;-37
2021/12/21 11:06:29;;;;;;;11.53;8.20;;;-1.00;99.90;;;;;;5052926;28;20342;-37
2021/12/21 11:09:04;;;;;;;13.83;7.83;;;-1.00;99.90;;;;;;5061170;28;20678;-37
2021/12/21 11:11:34;;;;;;;11.60;7.20;;;-0.90;99.90;;;;;;5055325;28;20205;-37
2021/12/21 11:14:04;;;;;;;14.50;7.87;;;-0.90;99.90;;;;;;5054726;28;20212;-37
2021/12/21 11:16:38;;;;;;;14.57;9.13;;;-0.80;99.90;;;;;;5069472;28;20249;-37
2021/12/21 11:19:06;;;;;;;14.63;9.23;;;-0.70;99.90;;;;;;5060796;28;20214;-37
2021/12/21 11:21:34;;;;;;;26.57;8.07;;;-0.70;99.90;;;;;;5072151;28;20808;-37
2021/12/21 11:24:05;;;;;;;10.90;7.10;;;-0.70;99.90;;;;;;5043271;28;20222;-37
2021/12/21 11:26:34;;;;;;;11.43;6.77;;;-0.70;99.90;;;;;;5078587;28;20340;-37
2021/12/21 11:29:04;;;;;;;8.63;6.17;;;-0.80;99.90;;;;;;5068554;28;20200;-37
2021/12/21 11:31:36;;;;;;;7.40;5.60;;;-0.80;99.90;;;;;;5080024;28;20213;-37
2021/12/21 11:34:07;;;;;;;9.23;6.50;;;-0.70;99.90;;;;;;5046991;28;20324;-37
2021/12/21 11:39:22;;;;;;;9.57;6.97;;;-0.70;99.90;;;;;;5055522;28;20323;-38
2021/12/21 11:41:51;;;;;;;9.20;7.17;;;-0.70;99.90;;;;;;5085634;27;20590;-37
2021/12/21 11:44:23;;;;;;;13.90;7.67;;;-0.60;99.90;;;;;;5084566;28;20217;-37
2021/12/21 11:46:58;;;;;;;10.63;7.03;;;-0.50;99.90;;;;;;5073691;28;21363;-37
2021/12/21 11:49:32;;;;;;;12.37;7.70;;;-0.50;99.90;;;;;;5057457;28;23010;-37
2021/12/21 11:52:07;;;;;;;9.03;6.87;;;-0.50;99.90;;;;;;5082570;28;20203;-38
2021/12/21 11:54:47;;;;;;;8.77;7.10;;;-0.40;99.90;;;;;;5064980;27;21572;-37
2021/12/21 11:57:16;;;;;;;17.93;7.03;;;-0.30;99.90;;;;;;5042775;28;20222;-37
2021/12/21 11:59:43;;;;;;;10.27;7.37;;;-0.30;99.90;;;;;;5068387;28;20239;-37
2021/12/21 12:02:10;;;;;;;10.23;7.40;;;-0.20;99.90;;;;;;5056181;28;20211;-37
2021/12/21 12:04:39;;;;;;;9.27;7.00;;;-0.10;99.90;;;;;;5063318;28;20220;-37
2021/12/21 12:07:17;;;;;;;10.63;7.53;;;0.00;99.90;;;;;;5075752;28;20232;-37
2021/12/21 12:09:47;;;;;;;8.73;6.90;;;0.00;99.90;;;;;;5064150;28;20205;-37
2021/12/21 12:12:16;;;;;;;11.70;6.97;;;0.10;99.90;;;;;;5050862;28;20424;-37
2021/12/21 12:14:45;;;;;;;11.27;7.43;;;0.10;99.90;;;;;;5063103;28;20232;-37
2021/12/21 12:17:15;;;;;;;11.03;7.57;;;0.10;99.90;;;;;;5063538;28;20244;-38
2021/12/21 12:19:43;;;;;;;8.97;7.13;;;0.10;99.90;;;;;;5057226;28;20278;-37
2021/12/21 12:22:15;;;;;;;9.00;7.07;;;0.10;99.90;;;;;;5066656;28;20238;-37
2021/12/21 12:24:46;;;;;;;10.17;6.73;;;0.20;99.90;;;;;;5068275;28;20243;-37
2021/12/21 12:27:16;;;;;;;10.83;7.43;;;0.20;99.90;;;;;;5054110;28;20239;-37
2021/12/21 12:29:47;;;;;;;9.37;7.30;;;0.30;99.90;;;;;;5049304;28;22991;-38
2021/12/21 12:32:15;;;;;;;11.17;7.23;;;0.30;99.90;;;;;;5048120;28;20211;-37
2021/12/21 12:34:43;;;;;;;9.27;7.03;;;0.30;99.90;;;;;;5033761;28;20594;-38
2021/12/21 12:37:20;;;;;;;11.87;7.57;;;0.30;99.90;;;;;;5048034;28;20644;-37
2021/12/21 12:39:50;;;;;;;12.00;6.73;;;0.40;99.90;;;;;;5049324;28;21612;-37
2021/12/21 12:42:24;;;;;;;10.63;7.80;;;0.40;99.90;;;;;;5040608;28;20259;-37
2021/12/21 12:45:05;;;;;;;9.77;7.00;;;0.40;99.90;;;;;;5057868;28;20223;-38
2021/12/21 12:47:32;;;;;;;12.83;8.10;;;0.40;99.90;;;;;;5061931;28;20214;-45
2021/12/21 12:50:00;;;;;;;13.37;9.03;;;0.40;99.90;;;;;;5046653;27;21300;-46
2021/12/21 12:52:30;;;;;;;12.80;8.70;;;0.40;99.90;;;;;;5076740;28;20200;-46
2021/12/21 12:55:01;;;;;;;15.13;8.23;;;0.40;99.90;;;;;;5061757;27;20405;-38
2021/12/21 12:57:38;;;;;;;13.23;8.70;;;1.00;99.90;;;;;;5049422;28;20217;-39
2021/12/21 13:00:12;;;;;;;14.93;8.60;;;1.10;99.90;;;;;;5058038;27;21281;-38
2021/12/21 13:02:56;;;;;;;12.47;7.97;;;1.10;99.90;;;;;;5037044;28;20207;-39
2021/12/21 13:05:27;;;;;;;11.37;7.63;;;1.00;99.90;;;;;;5037455;28;20474;-38
2021/12/21 13:07:54;;;;;;;13.53;7.93;;;0.90;99.90;;;;;;5055533;28;20232;-37
2021/12/21 13:10:24;;;;;;;10.60;6.90;;;0.90;99.90;;;;;;5038357;28;20287;-38
2021/12/21 13:12:58;;;;;;;13.27;8.20;;;0.90;99.90;;;;;;5041551;28;20213;-40
2021/12/21 13:15:36;;;;;;;14.40;7.87;;;0.80;99.90;;;;;;5049147;28;20238;-38
2021/12/21 13:18:06;;;;;;;11.30;7.63;;;0.80;99.90;;;;;;5061127;28;21008;-40
2021/12/21 13:20:33;;;;;;;9.00;6.80;;;0.80;99.90;;;;;;5051645;28;20219;-40
2021/12/21 13:23:13;;;;;;;11.10;7.60;;;0.80;99.90;;;;;;5058061;28;21274;-40
2021/12/21 13:25:57;;;;;;;16.20;8.17;;;0.80;99.90;;;;;;5064217;28;20230;-40
2021/12/21 13:28:25;;;;;;;13.13;7.87;;;0.80;99.90;;;;;;5062409;28;20664;-40
2021/12/21 13:30:54;;;;;;;10.50;7.83;;;0.80;99.90;;;;;;5054600;28;20202;-40
2021/12/21 13:33:25;;;;;;;17.50;7.33;;;0.80;99.90;;;;;;5067319;28;20202;-40